sensor_id;sensor_type;location;lat;lon;timestamp;pressure;altitude;pressure_sealevel;temperature;humidity
45621;BME280;31345;51.522;10.702;2022-11-15T00:00:19;98840.34;;;5.22;100.00
45621;BME280;31345;51.522;10.702;2022-11-15T00:03:06;98840.47;;;5.19;100.00
45621;BME280;31345;51.522;10.702;2022-11-15T00:05:52;98850.22;;;5.14;100.00
45621;BME280;31345;51.522;10.702;2022-11-15T00:08:38;98845.72;;;5.17;100.00
45621;BME280;31345;51.522;10.702;2022-11-15T00:11:24;98845.59;;;5.20;100.00
45621;BME280;31345;51.522;10.702;2022-11-15T00:14:11;98855.81;;;5.23;100.00
45621;BME280;31345;51.522;10.702;2022-11-15T00:16:58;98847.91;;;5.27;100.00
45621;BME280;31345;51.522;10.702;2022-11-15T00:19:44;98844.16;;;5.32;100.00
45621;BME280;31345;51.522;10.702;2022-11-15T00:22:31;98850.78;;;5.38;100.00
45621;BME280;31345;51.522;10.702;2022-11-15T00:25:18;98838.13;;;5.32;100.00
45621;BME280;31345;51.522;10.702;2022-11-15T00:28:04;98850.72;;;5.40;100.00
45621;BME280;31345;51.522;10.702;2022-11-15T00:30:50;98848.38;;;5.53;100.00
45621;BME280;31345;51.522;10.702;2022-11-15T00:33:38;98850.91;;;5.54;100.00
45621;BME280;31345;51.522;10.702;2022-11-15T00:36:24;98847.91;;;5.44;100.00
45621;BME280;31345;51.522;10.702;2022-11-15T00:39:10;98850.44;;;5.46;100.00
45621;BME280;31345;51.522;10.702;2022-11-15T00:41:56;98852.75;;;5.70;100.00
45621;BME280;31345;51.522;10.702;2022-11-15T00:44:43;98851.44;;;5.61;100.00
45621;BME280;31345;51.522;10.702;2022-11-15T00:47:29;98852.84;;;5.31;100.00
45621;BME280;31345;51.522;10.702;2022-11-15T00:50:17;98848.50;;;5.32;100.00
45621;BME280;31345;51.522;10.702;2022-11-15T00:53:03;98858.81;;;5.33;100.00
45621;BME280;31345;51.522;10.702;2022-11-15T00:55:49;98857.03;;;5.34;100.00
45621;BME280;31345;51.522;10.702;2022-11-15T00:58:36;98866.13;;;5.25;100.00
45621;BME280;31345;51.522;10.702;2022-11-15T01:01:22;98864.66;;;5.19;100.00
45621;BME280;31345;51.522;10.702;2022-11-15T01:04:08;98862.19;;;5.16;100.00
45621;BME280;31345;51.522;10.702;2022-11-15T01:06:56;98865.84;;;5.12;100.00
45621;BME280;31345;51.522;10.702;2022-11-15T01:09:43;98871.16;;;5.09;100.00
45621;BME280;31345;51.522;10.702;2022-11-15T01:12:30;98861.44;;;4.95;100.00
45621;BME280;31345;51.522;10.702;2022-11-15T01:15:16;98864.75;;;4.98;100.00
45621;BME280;31345;51.522;10.702;2022-11-15T01:18:03;98866.34;;;5.01;100.00
45621;BME280;31345;51.522;10.702;2022-11-15T01:20:49;98865.50;;;5.01;100.00
45621;BME280;31345;51.522;10.702;2022-11-15T01:23:37;98860.59;;;4.94;100.00
45621;BME280;31345;51.522;10.702;2022-11-15T01:26:25;98850.22;;;4.94;100.00
45621;BME280;31345;51.522;10.702;2022-11-15T01:29:11;98849.69;;;5.07;100.00
45621;BME280;31345;51.522;10.702;2022-11-15T01:31:57;98835.69;;;4.92;100.00
45621;BME280;31345;51.522;10.702;2022-11-15T01:34:44;98850.94;;;4.98;100.00
45621;BME280;31345;51.522;10.702;2022-11-15T01:37:30;98841.09;;;4.87;100.00
45621;BME280;31345;51.522;10.702;2022-11-15T01:40:17;98833.72;;;4.78;100.00
45621;BME280;31345;51.522;10.702;2022-11-15T01:43:21;98829.91;;;4.67;100.00
45621;BME280;31345;51.522;10.702;2022-11-15T01:46:18;98826.81;;;4.59;100.00
45621;BME280;31345;51.522;10.702;2022-11-15T01:49:12;98829.69;;;4.53;100.00
45621;BME280;31345;51.522;10.702;2022-11-15T01:52:00;98828.91;;;4.51;100.00
45621;BME280;31345;51.522;10.702;2022-11-15T01:54:48;98825.47;;;4.31;100.00
45621;BME280;31345;51.522;10.702;2022-11-15T01:57:38;98809.34;;;4.24;100.00
45621;BME280;31345;51.522;10.702;2022-11-15T02:00:25;98817.88;;;4.07;100.00
45621;BME280;31345;51.522;10.702;2022-11-15T02:03:12;98820.41;;;4.08;100.00
45621;BME280;31345;51.522;10.702;2022-11-15T02:05:59;98813.75;;;3.82;100.00
45621;BME280;31345;51.522;10.702;2022-11-15T02:08:45;98819.19;;;3.76;100.00
45621;BME280;31345;51.522;10.702;2022-11-15T02:11:32;98803.34;;;3.84;100.00
45621;BME280;31345;51.522;10.702;2022-11-15T02:14:21;98807.47;;;3.88;100.00
45621;BME280;31345;51.522;10.702;2022-11-15T02:17:20;98802.44;;;3.85;100.00
45621;BME280;31345;51.522;10.702;2022-11-15T02:20:42;98786.63;;;3.72;100.00
45621;BME280;31345;51.522;10.702;2022-11-15T02:23:45;98785.53;;;3.56;100.00
45621;BME280;31345;51.522;10.702;2022-11-15T02:26:59;98781.97;;;3.59;100.00
45621;BME280;31345;51.522;10.702;2022-11-15T02:30:04;98777.44;;;3.43;100.00
45621;BME280;31345;51.522;10.702;2022-11-15T02:32:58;98779.97;;;3.45;100.00
45621;BME280;31345;51.522;10.702;2022-11-15T02:35:52;98778.06;;;3.49;100.00
45621;BME280;31345;51.522;10.702;2022-11-15T02:38:49;98776.16;;;3.11;100.00
45621;BME280;31345;51.522;10.702;2022-11-15T02:41:43;98774.38;;;3.13;100.00
45621;BME280;31345;51.522;10.702;2022-11-15T02:44:35;98773.41;;;3.15;100.00
45621;BME280;31345;51.522;10.702;2022-11-15T02:47:23;98765.25;;;2.82;100.00
45621;BME280;31345;51.522;10.702;2022-11-15T02:50:16;98751.69;;;2.76;100.00
45621;BME280;31345;51.522;10.702;2022-11-15T02:53:04;98754.75;;;2.86;100.00
45621;BME280;31345;51.522;10.702;2022-11-15T02:55:51;98739.34;;;3.06;100.00
45621;BME280;31345;51.522;10.702;2022-11-15T02:59:09;98735.50;;;2.94;100.00
45621;BME280;31345;51.522;10.702;2022-11-15T03:02:12;98739.78;;;2.95;100.00
45621;BME280;31345;51.522;10.702;2022-11-15T03:05:07;98740.41;;;2.79;100.00
45621;BME280;31345;51.522;10.702;2022-11-15T03:08:04;98746.88;;;2.67;100.00
45621;BME280;31345;51.522;10.702;2022-11-15T03:11:00;98742.19;;;2.77;100.00
45621;BME280;31345;51.522;10.702;2022-11-15T03:13:53;98744.59;;;2.82;100.00
45621;BME280;31345;51.522;10.702;2022-11-15T03:16:45;98738.09;;;2.71;100.00
45621;BME280;31345;51.522;10.702;2022-11-15T03:19:37;98741.81;;;2.64;100.00
45621;BME280;31345;51.522;10.702;2022-11-15T03:22:29;98716.41;;;2.98;100.00
45621;BME280;31345;51.522;10.702;2022-11-15T03:25:20;98724.16;;;2.75;100.00
45621;BME280;31345;51.522;10.702;2022-11-15T03:28:12;98725.03;;;2.76;100.00
45621;BME280;31345;51.522;10.702;2022-11-15T03:31:02;98722.88;;;2.65;100.00
45621;BME280;31345;51.522;10.702;2022-11-15T03:34:15;98710.25;;;2.57;100.00
45621;BME280;31345;51.522;10.702;2022-11-15T03:37:02;98718.59;;;2.42;100.00
45621;BME280;31345;51.522;10.702;2022-11-15T03:39:50;98715.00;;;2.46;100.00
45621;BME280;31345;51.522;10.702;2022-11-15T03:42:42;98718.41;;;2.46;100.00
45621;BME280;31345;51.522;10.702;2022-11-15T03:45:36;98714.06;;;2.48;100.00
45621;BME280;31345;51.522;10.702;2022-11-15T03:48:27;98714.16;;;2.45;100.00
45621;BME280;31345;51.522;10.702;2022-11-15T03:51:17;98722.44;;;2.31;100.00
45621;BME280;31345;51.522;10.702;2022-11-15T03:54:04;98721.59;;;2.31;100.00
45621;BME280;31345;51.522;10.702;2022-11-15T03:56:51;98719.84;;;2.31;100.00
45621;BME280;31345;51.522;10.702;2022-11-15T03:59:39;98725.97;;;2.29;100.00
45621;BME280;31345;51.522;10.702;2022-11-15T04:02:25;98722.97;;;2.39;100.00
45621;BME280;31345;51.522;10.702;2022-11-15T04:05:13;98716.84;;;2.42;100.00
45621;BME280;31345;51.522;10.702;2022-11-15T04:07:59;98723.53;;;2.48;100.00
45621;BME280;31345;51.522;10.702;2022-11-15T04:10:48;98720.56;;;2.35;100.00
45621;BME280;31345;51.522;10.702;2022-11-15T04:13:35;98733.34;;;2.38;100.00
45621;BME280;31345;51.522;10.702;2022-11-15T04:16:23;98734.88;;;2.44;100.00
45621;BME280;31345;51.522;10.702;2022-11-15T04:19:09;98736.78;;;2.38;100.00
45621;BME280;31345;51.522;10.702;2022-11-15T04:22:13;98737.84;;;2.33;100.00
45621;BME280;31345;51.522;10.702;2022-11-15T04:25:17;98738.69;;;2.33;100.00
45621;BME280;31345;51.522;10.702;2022-11-15T04:28:04;98733.22;;;2.19;100.00
45621;BME280;31345;51.522;10.702;2022-11-15T04:30:50;98724.09;;;2.32;100.00
45621;BME280;31345;51.522;10.702;2022-11-15T04:33:38;98714.41;;;2.15;100.00
45621;BME280;31345;51.522;10.702;2022-11-15T04:36:24;98713.31;;;1.98;100.00
45621;BME280;31345;51.522;10.702;2022-11-15T04:39:28;98716.91;;;1.94;100.00
45621;BME280;31345;51.522;10.702;2022-11-15T04:42:15;98714.78;;;2.06;100.00
45621;BME280;31345;51.522;10.702;2022-11-15T04:45:01;98712.91;;;2.09;100.00
45621;BME280;31345;51.522;10.702;2022-11-15T04:47:48;98722.41;;;1.85;100.00
45621;BME280;31345;51.522;10.702;2022-11-15T04:50:35;98715.72;;;1.79;100.00
45621;BME280;31345;51.522;10.702;2022-11-15T04:53:22;98719.78;;;1.86;100.00
45621;BME280;31345;51.522;10.702;2022-11-15T04:56:08;98724.44;;;2.00;100.00
45621;BME280;31345;51.522;10.702;2022-11-15T04:58:54;98726.69;;;1.84;100.00
45621;BME280;31345;51.522;10.702;2022-11-15T05:01:40;98727.03;;;1.75;100.00
45621;BME280;31345;51.522;10.702;2022-11-15T05:04:26;98721.09;;;1.73;100.00
45621;BME280;31345;51.522;10.702;2022-11-15T05:07:13;98728.16;;;1.68;100.00
45621;BME280;31345;51.522;10.702;2022-11-15T05:09:59;98714.34;;;1.69;100.00
45621;BME280;31345;51.522;10.702;2022-11-15T05:12:46;98719.47;;;1.70;100.00
45621;BME280;31345;51.522;10.702;2022-11-15T05:15:32;98709.09;;;1.72;100.00
45621;BME280;31345;51.522;10.702;2022-11-15T05:18:18;98712.44;;;1.74;100.00
45621;BME280;31345;51.522;10.702;2022-11-15T05:21:05;98707.13;;;1.79;100.00
45621;BME280;31345;51.522;10.702;2022-11-15T05:23:54;98704.72;;;1.74;100.00
45621;BME280;31345;51.522;10.702;2022-11-15T05:26:40;98710.78;;;1.73;100.00
45621;BME280;31345;51.522;10.702;2022-11-15T05:29:26;98715.94;;;1.73;100.00
45621;BME280;31345;51.522;10.702;2022-11-15T05:32:13;98712.34;;;1.77;100.00
45621;BME280;31345;51.522;10.702;2022-11-15T05:34:59;98710.38;;;1.84;100.00
45621;BME280;31345;51.522;10.702;2022-11-15T05:37:46;98712.91;;;1.85;100.00
45621;BME280;31345;51.522;10.702;2022-11-15T05:40:34;98709.78;;;1.77;100.00
45621;BME280;31345;51.522;10.702;2022-11-15T05:43:20;98714.53;;;1.88;100.00
45621;BME280;31345;51.522;10.702;2022-11-15T05:46:07;98711.00;;;1.67;100.00
45621;BME280;31345;51.522;10.702;2022-11-15T05:48:55;98705.81;;;1.68;100.00
45621;BME280;31345;51.522;10.702;2022-11-15T05:51:43;98719.81;;;1.85;100.00
45621;BME280;31345;51.522;10.702;2022-11-15T05:54:31;98712.97;;;1.84;100.00
45621;BME280;31345;51.522;10.702;2022-11-15T05:57:20;98715.16;;;1.71;100.00
45621;BME280;31345;51.522;10.702;2022-11-15T06:00:07;98715.47;;;1.61;100.00
45621;BME280;31345;51.522;10.702;2022-11-15T06:02:54;98724.00;;;1.64;100.00
45621;BME280;31345;51.522;10.702;2022-11-15T06:05:40;98724.06;;;1.62;100.00
45621;BME280;31345;51.522;10.702;2022-11-15T06:08:27;98724.34;;;1.54;100.00
45621;BME280;31345;51.522;10.702;2022-11-15T06:11:13;98724.47;;;1.49;100.00
45621;BME280;31345;51.522;10.702;2022-11-15T06:14:01;98734.50;;;1.57;100.00
45621;BME280;31345;51.522;10.702;2022-11-15T06:16:47;98738.50;;;1.66;100.00
45621;BME280;31345;51.522;10.702;2022-11-15T06:19:34;98739.66;;;1.57;100.00
45621;BME280;31345;51.522;10.702;2022-11-15T06:22:20;98738.94;;;1.79;100.00
45621;BME280;31345;51.522;10.702;2022-11-15T06:25:06;98730.81;;;1.65;100.00
45621;BME280;31345;51.522;10.702;2022-11-15T06:27:54;98733.84;;;1.52;100.00
45621;BME280;31345;51.522;10.702;2022-11-15T06:30:42;98727.81;;;1.52;100.00
45621;BME280;31345;51.522;10.702;2022-11-15T06:33:28;98736.59;;;1.46;100.00
45621;BME280;31345;51.522;10.702;2022-11-15T06:36:15;98745.03;;;1.51;100.00
45621;BME280;31345;51.522;10.702;2022-11-15T06:39:03;98749.84;;;1.35;100.00
45621;BME280;31345;51.522;10.702;2022-11-15T06:41:49;98752.59;;;1.56;100.00
45621;BME280;31345;51.522;10.702;2022-11-15T06:44:36;98763.28;;;1.70;100.00
45621;BME280;31345;51.522;10.702;2022-11-15T06:47:24;98767.19;;;1.82;100.00
45621;BME280;31345;51.522;10.702;2022-11-15T06:50:11;98762.94;;;1.80;100.00
45621;BME280;31345;51.522;10.702;2022-11-15T06:53:01;98769.63;;;1.60;100.00
45621;BME280;31345;51.522;10.702;2022-11-15T06:55:48;98763.13;;;1.75;100.00
45621;BME280;31345;51.522;10.702;2022-11-15T06:58:34;98762.31;;;1.98;100.00
45621;BME280;31345;51.522;10.702;2022-11-15T07:01:38;98773.78;;;2.13;100.00
45621;BME280;31345;51.522;10.702;2022-11-15T07:04:26;98782.47;;;2.35;100.00
45621;BME280;31345;51.522;10.702;2022-11-15T07:07:14;98780.19;;;2.51;100.00
45621;BME280;31345;51.522;10.702;2022-11-15T07:10:01;98774.00;;;2.55;100.00
45621;BME280;31345;51.522;10.702;2022-11-15T07:12:50;98777.41;;;2.56;100.00
45621;BME280;31345;51.522;10.702;2022-11-15T07:15:37;98776.94;;;2.68;100.00
45621;BME280;31345;51.522;10.702;2022-11-15T07:18:23;98776.78;;;2.73;100.00
45621;BME280;31345;51.522;10.702;2022-11-15T07:21:16;98781.81;;;2.76;100.00
45621;BME280;31345;51.522;10.702;2022-11-15T07:24:03;98778.22;;;2.80;100.00
45621;BME280;31345;51.522;10.702;2022-11-15T07:26:50;98770.78;;;2.95;100.00
45621;BME280;31345;51.522;10.702;2022-11-15T07:29:36;98769.69;;;3.00;100.00
45621;BME280;31345;51.522;10.702;2022-11-15T07:32:23;98769.81;;;2.97;100.00
45621;BME280;31345;51.522;10.702;2022-11-15T07:35:10;98770.75;;;3.17;100.00
45621;BME280;31345;51.522;10.702;2022-11-15T07:37:59;98776.16;;;3.11;100.00
45621;BME280;31345;51.522;10.702;2022-11-15T07:40:46;98774.38;;;3.13;100.00
45621;BME280;31345;51.522;10.702;2022-11-15T07:43:33;98784.44;;;3.19;100.00
45621;BME280;31345;51.522;10.702;2022-11-15T07:46:20;98778.50;;;3.17;100.00
45621;BME280;31345;51.522;10.702;2022-11-15T07:49:07;98777.47;;;3.21;100.00
45621;BME280;31345;51.522;10.702;2022-11-15T07:51:54;98774.78;;;3.24;100.00
45621;BME280;31345;51.522;10.702;2022-11-15T07:54:42;98767.59;;;3.31;100.00
45621;BME280;31345;51.522;10.702;2022-11-15T07:57:29;98777.69;;;3.37;100.00
45621;BME280;31345;51.522;10.702;2022-11-15T08:00:17;98776.28;;;3.51;100.00
45621;BME280;31345;51.522;10.702;2022-11-15T08:03:04;98777.56;;;3.61;100.00
45621;BME280;31345;51.522;10.702;2022-11-15T08:05:52;98769.09;;;3.78;100.00
45621;BME280;31345;51.522;10.702;2022-11-15T08:08:38;98764.59;;;3.82;100.00
45621;BME280;31345;51.522;10.702;2022-11-15T08:11:26;98756.53;;;3.90;100.00
45621;BME280;31345;51.522;10.702;2022-11-15T08:14:13;98760.81;;;4.10;100.00
45621;BME280;31345;51.522;10.702;2022-11-15T08:17:00;98745.31;;;4.29;100.00
45621;BME280;31345;51.522;10.702;2022-11-15T08:19:47;98742.16;;;4.42;100.00
45621;BME280;31345;51.522;10.702;2022-11-15T08:22:33;98732.25;;;4.69;100.00
45621;BME280;31345;51.522;10.702;2022-11-15T08:25:20;98739.88;;;4.90;100.00
45621;BME280;31345;51.522;10.702;2022-11-15T08:28:10;98736.56;;;5.06;100.00
45621;BME280;31345;51.522;10.702;2022-11-15T08:31:00;98730.25;;;5.29;100.00
45621;BME280;31345;51.522;10.702;2022-11-15T08:33:46;98733.22;;;5.39;100.00
45621;BME280;31345;51.522;10.702;2022-11-15T08:36:39;98730.06;;;5.68;100.00
45621;BME280;31345;51.522;10.702;2022-11-15T08:39:25;98727.88;;;5.94;100.00
45621;BME280;31345;51.522;10.702;2022-11-15T08:42:12;98733.16;;;6.08;100.00
45621;BME280;31345;51.522;10.702;2022-11-15T08:45:01;98729.22;;;6.17;100.00
45621;BME280;31345;51.522;10.702;2022-11-15T08:47:51;98730.34;;;6.29;100.00
45621;BME280;31345;51.522;10.702;2022-11-15T08:50:38;98729.53;;;6.45;100.00
45621;BME280;31345;51.522;10.702;2022-11-15T08:53:25;98714.47;;;6.66;100.00
45621;BME280;31345;51.522;10.702;2022-11-15T08:56:14;98717.41;;;6.76;100.00
45621;BME280;31345;51.522;10.702;2022-11-15T08:59:03;98712.09;;;6.94;100.00
45621;BME280;31345;51.522;10.702;2022-11-15T09:01:52;98701.00;;;7.06;100.00
45621;BME280;31345;51.522;10.702;2022-11-15T09:04:40;98699.13;;;7.08;100.00
45621;BME280;31345;51.522;10.702;2022-11-15T09:07:28;98700.91;;;7.08;100.00
45621;BME280;31345;51.522;10.702;2022-11-15T09:10:16;98701.94;;;7.20;100.00
45621;BME280;31345;51.522;10.702;2022-11-15T09:13:05;98703.22;;;7.43;100.00
45621;BME280;31345;51.522;10.702;2022-11-15T09:15:52;98696.38;;;7.56;100.00
45621;BME280;31345;51.522;10.702;2022-11-15T09:18:40;98695.78;;;7.51;100.00
45621;BME280;31345;51.522;10.702;2022-11-15T09:21:28;98693.03;;;7.69;100.00
45621;BME280;31345;51.522;10.702;2022-11-15T09:24:15;98690.44;;;7.84;100.00
45621;BME280;31345;51.522;10.702;2022-11-15T09:27:02;98693.50;;;7.90;100.00
45621;BME280;31345;51.522;10.702;2022-11-15T09:29:49;98693.50;;;8.05;100.00
45621;BME280;31345;51.522;10.702;2022-11-15T09:32:35;98697.44;;;8.25;100.00
45621;BME280;31345;51.522;10.702;2022-11-15T09:35:26;98692.50;;;8.35;100.00
45621;BME280;31345;51.522;10.702;2022-11-15T09:38:14;98688.47;;;8.44;100.00
45621;BME280;31345;51.522;10.702;2022-11-15T09:41:32;98687.44;;;8.74;100.00
45621;BME280;31345;51.522;10.702;2022-11-15T09:44:42;98675.84;;;8.65;100.00
45621;BME280;31345;51.522;10.702;2022-11-15T09:47:46;98668.22;;;8.62;100.00
45621;BME280;31345;51.522;10.702;2022-11-15T09:50:45;98669.94;;;8.76;100.00
45621;BME280;31345;51.522;10.702;2022-11-15T09:53:20;98671.69;;;8.76;100.00
45621;BME280;31345;51.522;10.702;2022-11-15T09:55:58;98668.31;;;9.01;100.00
45621;BME280;31345;51.522;10.702;2022-11-15T09:58:34;98671.50;;;9.32;100.00
45621;BME280;31345;51.522;10.702;2022-11-15T10:01:08;98669.41;;;9.50;100.00
45621;BME280;31345;51.522;10.702;2022-11-15T10:03:40;98660.81;;;9.74;100.00
45621;BME280;31345;51.522;10.702;2022-11-15T10:06:21;98652.16;;;9.74;100.00
45621;BME280;31345;51.522;10.702;2022-11-15T10:08:55;98647.38;;;9.68;100.00
45621;BME280;31345;51.522;10.702;2022-11-15T10:11:28;98648.06;;;9.70;100.00
45621;BME280;31345;51.522;10.702;2022-11-15T10:14:01;98647.09;;;10.10;100.00
45621;BME280;31345;51.522;10.702;2022-11-15T10:19:26;98645.94;;;10.38;100.00
45621;BME280;31345;51.522;10.702;2022-11-15T10:22:12;98636.91;;;10.67;100.00
45621;BME280;31345;51.522;10.702;2022-11-15T10:24:45;98635.25;;;10.66;100.00
45621;BME280;31345;51.522;10.702;2022-11-15T10:27:16;98630.56;;;10.83;100.00
45621;BME280;31345;51.522;10.702;2022-11-15T10:29:45;98624.81;;;11.25;100.00
45621;BME280;31345;51.522;10.702;2022-11-15T10:32:15;98613.63;;;11.34;100.00
45621;BME280;31345;51.522;10.702;2022-11-15T10:34:45;98604.72;;;11.25;96.13
45621;BME280;31345;51.522;10.702;2022-11-15T10:37:14;98592.81;;;11.10;98.90
45621;BME280;31345;51.522;10.702;2022-11-15T10:39:42;98597.81;;;11.24;99.76
45621;BME280;31345;51.522;10.702;2022-11-15T10:42:17;98596.50;;;11.30;98.95
45621;BME280;31345;51.522;10.702;2022-11-15T10:44:46;98596.75;;;11.27;97.21
45621;BME280;31345;51.522;10.702;2022-11-15T10:47:25;98599.38;;;11.15;99.52
45621;BME280;31345;51.522;10.702;2022-11-15T10:49:57;98594.00;;;11.28;99.78
45621;BME280;31345;51.522;10.702;2022-11-15T10:52:27;98591.28;;;11.30;97.49
45621;BME280;31345;51.522;10.702;2022-11-15T10:55:00;98594.25;;;11.60;98.11
45621;BME280;31345;51.522;10.702;2022-11-15T10:57:32;98580.56;;;11.56;97.42
45621;BME280;31345;51.522;10.702;2022-11-15T11:00:05;98584.38;;;11.63;98.10
45621;BME280;31345;51.522;10.702;2022-11-15T11:02:35;98585.53;;;12.05;99.41
45621;BME280;31345;51.522;10.702;2022-11-15T11:05:05;98579.41;;;12.16;94.01
45621;BME280;31345;51.522;10.702;2022-11-15T11:07:35;98571.16;;;12.32;92.15
45621;BME280;31345;51.522;10.702;2022-11-15T11:10:17;98573.03;;;12.30;92.43
45621;BME280;31345;51.522;10.702;2022-11-15T11:12:45;98567.47;;;12.56;93.76
45621;BME280;31345;51.522;10.702;2022-11-15T11:15:15;98562.41;;;12.64;91.17
45621;BME280;31345;51.522;10.702;2022-11-15T11:17:55;98572.00;;;12.54;92.86
45621;BME280;31345;51.522;10.702;2022-11-15T11:20:30;98562.41;;;12.43;92.38
45621;BME280;31345;51.522;10.702;2022-11-15T11:23:18;98561.75;;;12.51;90.93
45621;BME280;31345;51.522;10.702;2022-11-15T11:25:53;98563.00;;;12.35;91.74
45621;BME280;31345;51.522;10.702;2022-11-15T11:28:38;98552.41;;;12.37;90.31
45621;BME280;31345;51.522;10.702;2022-11-15T11:31:20;98554.69;;;12.30;92.09
45621;BME280;31345;51.522;10.702;2022-11-15T11:33:50;98565.53;;;12.04;93.67
45621;BME280;31345;51.522;10.702;2022-11-15T11:36:25;98561.72;;;11.85;94.42
45621;BME280;31345;51.522;10.702;2022-11-15T11:39:11;98560.63;;;11.88;92.94
45621;BME280;31345;51.522;10.702;2022-11-15T11:41:56;98554.94;;;11.82;94.44
45621;BME280;31345;51.522;10.702;2022-11-15T11:44:34;98547.94;;;11.72;96.49
45621;BME280;31345;51.522;10.702;2022-11-15T11:47:09;98542.53;;;11.96;95.37
45621;BME280;31345;51.522;10.702;2022-11-15T11:49:46;98547.91;;;11.83;95.24
45621;BME280;31345;51.522;10.702;2022-11-15T11:52:19;98547.69;;;11.75;96.06
45621;BME280;31345;51.522;10.702;2022-11-15T11:54:59;98545.44;;;11.70;96.19
45621;BME280;31345;51.522;10.702;2022-11-15T11:57:38;98548.97;;;11.80;96.43
45621;BME280;31345;51.522;10.702;2022-11-15T12:00:17;98553.53;;;11.78;97.09
45621;BME280;31345;51.522;10.702;2022-11-15T12:03:01;98546.16;;;11.72;96.76
45621;BME280;31345;51.522;10.702;2022-11-15T12:05:35;98536.88;;;11.68;95.73
45621;BME280;31345;51.522;10.702;2022-11-15T12:08:18;98535.81;;;11.59;96.48
45621;BME280;31345;51.522;10.702;2022-11-15T12:10:57;98538.31;;;11.61;99.31
45621;BME280;31345;51.522;10.702;2022-11-15T12:13:29;98535.69;;;11.61;99.94
45621;BME280;31345;51.522;10.702;2022-11-15T12:16:07;98538.78;;;11.66;100.00
45621;BME280;31345;51.522;10.702;2022-11-15T12:18:38;98541.03;;;11.70;99.81
45621;BME280;31345;51.522;10.702;2022-11-15T12:21:14;98537.09;;;11.76;99.66
45621;BME280;31345;51.522;10.702;2022-11-15T12:23:46;98525.91;;;11.86;97.30
45621;BME280;31345;51.522;10.702;2022-11-15T12:26:20;98519.94;;;11.95;98.74
45621;BME280;31345;51.522;10.702;2022-11-15T12:28:53;98519.91;;;12.06;95.70
45621;BME280;31345;51.522;10.702;2022-11-15T12:31:38;98525.94;;;12.07;99.31
45621;BME280;31345;51.522;10.702;2022-11-15T12:34:28;98525.25;;;12.05;97.42
45621;BME280;31345;51.522;10.702;2022-11-15T12:36:57;98522.75;;;12.03;93.53
45621;BME280;31345;51.522;10.702;2022-11-15T12:42:40;98515.72;;;12.15;94.25
45621;BME280;31345;51.522;10.702;2022-11-15T12:45:24;98518.97;;;12.29;98.81
45621;BME280;31345;51.522;10.702;2022-11-15T12:47:53;98511.41;;;12.14;96.87
45621;BME280;31345;51.522;10.702;2022-11-15T12:53:31;98512.84;;;12.07;100.00
45621;BME280;31345;51.522;10.702;2022-11-15T12:56:24;98506.59;;;11.98;97.65
45621;BME280;31345;51.522;10.702;2022-11-15T12:58:55;98495.84;;;12.01;100.00
45621;BME280;31345;51.522;10.702;2022-11-15T13:01:58;98501.22;;;12.00;99.75
45621;BME280;31345;51.522;10.702;2022-11-15T13:04:28;98491.69;;;11.99;100.00
45621;BME280;31345;51.522;10.702;2022-11-15T13:07:00;98494.50;;;12.07;100.00
45621;BME280;31345;51.522;10.702;2022-11-15T13:09:52;98490.88;;;11.98;100.00
45621;BME280;31345;51.522;10.702;2022-11-15T13:12:55;98480.03;;;11.91;100.00
45621;BME280;31345;51.522;10.702;2022-11-15T13:18:32;98473.81;;;12.04;100.00
45621;BME280;31345;51.522;10.702;2022-11-15T13:21:01;98470.69;;;12.10;100.00
45621;BME280;31345;51.522;10.702;2022-11-15T13:23:54;98457.84;;;12.28;100.00
45621;BME280;31345;51.522;10.702;2022-11-15T13:26:23;98449.53;;;12.44;100.00
45621;BME280;31345;51.522;10.702;2022-11-15T13:28:57;98447.88;;;12.43;100.00
45621;BME280;31345;51.522;10.702;2022-11-15T13:31:35;98448.31;;;12.49;98.50
45621;BME280;31345;51.522;10.702;2022-11-15T13:34:26;98446.59;;;12.38;99.63
45621;BME280;31345;51.522;10.702;2022-11-15T13:36:59;98447.59;;;12.46;97.60
45621;BME280;31345;51.522;10.702;2022-11-15T13:39:32;98435.03;;;12.40;99.31
45621;BME280;31345;51.522;10.702;2022-11-15T13:42:01;98438.03;;;12.36;99.73
45621;BME280;31345;51.522;10.702;2022-11-15T13:44:34;98435.03;;;12.40;100.00
45621;BME280;31345;51.522;10.702;2022-11-15T13:47:06;98427.97;;;12.41;100.00
45621;BME280;31345;51.522;10.702;2022-11-15T13:49:36;98428.06;;;12.29;100.00
45621;BME280;31345;51.522;10.702;2022-11-15T13:52:06;98429.22;;;12.15;100.00
45621;BME280;31345;51.522;10.702;2022-11-15T13:54:40;98421.22;;;12.17;100.00
45621;BME280;31345;51.522;10.702;2022-11-15T13:57:14;98418.81;;;12.04;100.00
45621;BME280;31345;51.522;10.702;2022-11-15T13:59:49;98423.09;;;11.93;100.00
45621;BME280;31345;51.522;10.702;2022-11-15T14:02:26;98424.56;;;11.86;100.00
45621;BME280;31345;51.522;10.702;2022-11-15T14:05:01;98422.47;;;11.80;100.00
45621;BME280;31345;51.522;10.702;2022-11-15T14:07:32;98424.59;;;11.75;100.00
45621;BME280;31345;51.522;10.702;2022-11-15T14:10:24;98419.47;;;11.73;100.00
45621;BME280;31345;51.522;10.702;2022-11-15T14:12:58;98414.75;;;11.67;100.00
45621;BME280;31345;51.522;10.702;2022-11-15T14:15:33;98411.00;;;11.81;100.00
45621;BME280;31345;51.522;10.702;2022-11-15T14:19:03;98409.19;;;11.60;100.00
45621;BME280;31345;51.522;10.702;2022-11-15T14:22:11;98397.00;;;11.49;100.00
45621;BME280;31345;51.522;10.702;2022-11-15T14:25:22;98395.06;;;11.51;100.00
45621;BME280;31345;51.522;10.702;2022-11-15T14:30:54;98397.41;;;11.10;100.00
45621;BME280;31345;51.522;10.702;2022-11-15T14:33:25;98389.22;;;11.03;100.00
45621;BME280;31345;51.522;10.702;2022-11-15T14:35:57;98387.69;;;11.01;100.00